createdAt,value
2018-01-18T00:01:53.256Z,15.33
2018-01-18T00:04:21.792Z,14.37
2018-01-18T00:06:49.360Z,14.67
2018-01-18T00:09:17.704Z,12.97
2018-01-18T00:11:46.044Z,11.10
2018-01-18T00:14:13.586Z,12.70
2018-01-18T00:16:41.912Z,16.50
2018-01-18T00:19:09.465Z,18.13
2018-01-18T00:21:37.813Z,12.10
2018-01-18T00:24:05.356Z,16.80
2018-01-18T00:26:33.682Z,10.13
2018-01-18T00:29:01.230Z,16.63
2018-01-18T00:31:28.796Z,15.63
2018-01-18T00:33:56.345Z,15.33
2018-01-18T00:36:23.908Z,23.73
2018-01-18T00:38:51.444Z,7.97
2018-01-18T00:41:19.009Z,9.43
2018-01-18T00:43:46.549Z,17.00
2018-01-18T00:46:14.112Z,11.80
2018-01-18T00:48:41.660Z,12.80
2018-01-18T00:51:10.004Z,10.23
2018-01-18T00:53:38.323Z,11.57
2018-01-18T00:56:05.883Z,31.13
2018-01-18T00:58:33.453Z,8.20
2018-01-18T01:01:00.996Z,9.63
2018-01-18T01:03:28.709Z,10.60
2018-01-18T01:05:56.260Z,14.30
2018-01-18T01:08:23.829Z,15.10
2018-01-18T01:10:52.132Z,16.87
2018-01-18T01:13:20.477Z,14.10
2018-01-18T01:15:48.783Z,9.43
2018-01-18T01:18:16.346Z,15.10
2018-01-18T01:20:43.912Z,9.73
2018-01-18T01:23:11.476Z,14.30
2018-01-18T01:25:39.788Z,10.90
2018-01-18T01:28:08.113Z,13.07
2018-01-18T01:30:35.683Z,14.33
2018-01-18T01:33:03.246Z,14.93
2018-01-18T01:35:30.791Z,16.43
2018-01-18T01:37:58.406Z,27.83
2018-01-18T01:40:26.432Z,13.20
2018-01-18T01:42:54.153Z,11.00
2018-01-18T01:45:21.713Z,16.93
2018-01-18T01:47:49.256Z,20.10
2018-01-18T01:50:16.820Z,11.30
2018-01-18T01:52:44.365Z,13.50
2018-01-18T01:55:11.928Z,11.30
2018-01-18T01:57:40.281Z,15.23
2018-01-18T02:00:07.840Z,16.07
2018-01-18T02:02:35.392Z,14.17
2018-01-18T02:05:03.720Z,11.00
2018-01-18T02:07:31.279Z,16.73
2018-01-18T02:09:58.840Z,17.73
2018-01-18T02:12:26.385Z,11.50
2018-01-18T02:14:53.956Z,18.33
2018-01-18T02:17:21.506Z,17.20
2018-01-18T02:19:49.837Z,16.33
2018-01-18T02:22:17.376Z,16.43
2018-01-18T02:24:44.936Z,14.43
2018-01-18T02:27:12.492Z,6.37
2018-01-18T02:29:40.031Z,10.00
2018-01-18T02:32:07.588Z,8.80
2018-01-18T02:34:35.134Z,13.73
2018-01-18T02:37:02.697Z,12.50
2018-01-18T02:39:30.999Z,21.37
2018-01-18T02:41:59.319Z,11.70
2018-01-18T02:44:26.901Z,7.70
2018-01-18T02:46:54.460Z,14.90
2018-01-18T02:49:22.004Z,12.30
2018-01-18T02:51:49.568Z,21.70
2018-01-18T02:54:17.118Z,13.53
2018-01-18T02:56:45.439Z,9.60
2018-01-18T02:59:13.742Z,11.23
2018-01-18T03:01:41.305Z,12.80
2018-01-18T03:04:09.613Z,8.93
2018-01-18T03:06:37.937Z,12.13
2018-01-18T03:09:05.473Z,12.07
2018-01-18T03:11:33.037Z,11.77
2018-01-18T03:14:00.589Z,12.67
2018-01-18T03:16:28.152Z,11.83
2018-01-18T03:18:56.451Z,12.03
2018-01-18T03:21:24.776Z,10.60
2018-01-18T03:23:52.320Z,8.40
2018-01-18T03:26:19.868Z,9.47
2018-01-18T03:28:47.432Z,4.47
2018-01-18T03:31:14.974Z,13.10
2018-01-18T03:33:42.541Z,9.60
2018-01-18T03:36:10.085Z,10.23
2018-01-18T03:38:37.652Z,12.70
2018-01-18T03:41:05.196Z,10.73
2018-01-18T03:43:32.749Z,9.50
2018-01-18T03:46:00.293Z,15.30
2018-01-18T03:48:28.621Z,10.90
2018-01-18T03:50:56.178Z,17.30
2018-01-18T03:53:24.572Z,9.40
2018-01-18T03:55:52.059Z,9.80
2018-01-18T03:58:20.397Z,13.77
2018-01-18T04:00:47.941Z,12.87
2018-01-18T04:03:16.288Z,12.93
2018-01-18T04:05:43.824Z,11.80
2018-01-18T04:08:11.429Z,16.73
2018-01-18T04:10:39.734Z,9.30
2018-01-18T04:13:08.060Z,15.97
2018-01-18T04:15:35.644Z,13.47
2018-01-18T04:18:03.193Z,19.20
2018-01-18T04:20:31.522Z,18.50
2018-01-18T04:22:59.061Z,24.67
2018-01-18T04:25:26.622Z,25.70
2018-01-18T04:27:54.168Z,28.87
2018-01-18T04:30:21.729Z,26.23
2018-01-18T04:32:49.276Z,30.73
2018-01-18T04:35:16.849Z,18.33
2018-01-18T04:37:44.383Z,21.40
2018-01-18T04:40:12.721Z,24.33
2018-01-18T04:42:40.274Z,24.03
2018-01-18T04:45:08.609Z,21.70
2018-01-18T04:47:36.165Z,37.00
2018-01-18T04:50:03.730Z,22.70
2018-01-18T04:52:32.037Z,12.00
2018-01-18T04:55:00.401Z,21.97
2018-01-18T04:57:29.452Z,20.83
2018-01-18T04:59:57.791Z,22.23
2018-01-18T05:02:25.329Z,24.73
2018-01-18T05:04:52.894Z,53.70
2018-01-18T05:07:20.441Z,29.10
2018-01-18T05:09:47.985Z,31.23
2018-01-18T05:12:15.543Z,18.80
2018-01-18T05:14:43.116Z,23.90
2018-01-18T05:17:10.672Z,17.77
2018-01-18T05:19:38.221Z,22.13
2018-01-18T05:22:05.783Z,17.00
2018-01-18T05:24:33.332Z,22.90
2018-01-18T05:27:00.893Z,27.33
2018-01-18T05:29:28.442Z,18.80
2018-01-18T05:31:56.034Z,18.63
2018-01-18T05:34:23.548Z,28.30
2018-01-18T05:36:51.114Z,29.30
2018-01-18T05:39:19.438Z,21.90
2018-01-18T05:41:47.013Z,16.60
2018-01-18T05:44:15.322Z,25.93
2018-01-18T05:46:42.909Z,20.20
2018-01-18T05:49:10.452Z,35.53
2018-01-18T05:51:38.032Z,15.57
2018-01-18T05:54:05.569Z,20.80
2018-01-18T05:56:33.135Z,32.43
2018-01-18T05:59:00.709Z,21.77
2018-01-18T06:01:29.034Z,23.90
2018-01-18T06:03:56.597Z,20.23
2018-01-18T06:06:24.157Z,35.00
2018-01-18T06:08:51.710Z,23.83
2018-01-18T06:11:19.256Z,31.33
2018-01-18T06:13:47.604Z,32.73
2018-01-18T06:16:15.140Z,26.07
2018-01-18T06:18:43.465Z,24.87
2018-01-18T06:21:10.995Z,37.50
2018-01-18T06:23:38.565Z,21.97
2018-01-18T06:26:06.112Z,30.57
2018-01-18T06:28:33.675Z,29.00
2018-01-18T06:31:01.992Z,40.53
2018-01-18T06:33:29.560Z,30.33
2018-01-18T06:35:57.875Z,30.53
2018-01-18T06:38:25.453Z,29.37
2018-01-18T06:40:53.015Z,31.10
2018-01-18T06:43:20.580Z,23.53
2018-01-18T06:45:48.127Z,32.30
2018-01-18T06:48:15.675Z,28.70
2018-01-18T06:50:44.005Z,25.37
2018-01-18T06:53:11.552Z,19.90
2018-01-18T06:55:39.120Z,24.20
2018-01-18T06:58:06.650Z,21.30
2018-01-18T07:00:34.209Z,26.77
2018-01-18T07:03:02.530Z,15.80
2018-01-18T07:05:30.087Z,21.17
2018-01-18T07:07:57.629Z,16.73
2018-01-18T07:10:25.208Z,23.37
2018-01-18T07:12:52.748Z,21.17
2018-01-18T07:15:21.089Z,17.70
2018-01-18T07:17:48.634Z,21.57
2018-01-18T07:20:16.969Z,24.50
2018-01-18T07:22:44.516Z,15.50
2018-01-18T07:25:12.878Z,16.87
2018-01-18T07:27:40.430Z,15.93
2018-01-18T07:30:07.980Z,10.03
2018-01-18T07:32:35.548Z,23.13
2018-01-18T07:35:03.098Z,16.43
2018-01-18T07:37:30.667Z,29.30
2018-01-18T07:39:58.225Z,12.80
2018-01-18T07:42:26.547Z,18.90
2018-01-18T07:44:54.079Z,15.07
2018-01-18T07:47:21.640Z,22.50
2018-01-18T07:49:49.189Z,21.57
2018-01-18T07:52:16.770Z,24.37
2018-01-18T07:54:45.082Z,17.10
2018-01-18T07:57:18.427Z,18.43
2018-01-18T07:59:45.968Z,24.63
2018-01-18T08:02:14.285Z,18.03
2018-01-18T08:04:41.849Z,16.77
2018-01-18T08:07:10.157Z,16.13
2018-01-18T08:09:38.494Z,15.70
2018-01-18T08:12:06.040Z,19.83
2018-01-18T08:14:34.376Z,12.30
2018-01-18T08:17:01.911Z,17.07
2018-01-18T08:19:29.479Z,13.33
2018-01-18T08:21:57.025Z,19.37
2018-01-18T08:24:24.590Z,24.63
2018-01-18T08:26:52.132Z,21.20
2018-01-18T08:29:19.693Z,20.53
2018-01-18T08:31:47.240Z,15.87
2018-01-18T08:34:14.795Z,11.40
2018-01-18T08:36:42.331Z,24.63
2018-01-18T08:39:09.898Z,17.67
2018-01-18T08:41:37.445Z,21.60
2018-01-18T08:44:04.987Z,19.23
2018-01-18T08:46:32.569Z,22.80
2018-01-18T08:49:00.099Z,13.03
2018-01-18T08:51:27.669Z,19.57
2018-01-18T08:53:55.212Z,16.23
2018-01-18T08:56:22.776Z,32.87
2018-01-18T08:58:50.329Z,15.77
2018-01-18T09:01:17.894Z,24.60
2018-01-18T09:03:45.468Z,21.73
2018-01-18T09:06:13.041Z,10.10
2018-01-18T09:08:40.597Z,17.27
2018-01-18T09:11:08.187Z,27.40
2018-01-18T09:13:35.719Z,18.63
2018-01-18T09:16:03.289Z,14.13
2018-01-18T09:18:30.834Z,26.23
2018-01-18T09:20:58.368Z,15.50
2018-01-18T09:23:25.949Z,11.10
2018-01-18T09:25:53.479Z,18.87
2018-01-18T09:28:21.804Z,23.63
2018-01-18T09:30:49.345Z,16.33
2018-01-18T09:33:16.913Z,15.20
2018-01-18T09:35:44.452Z,14.93
2018-01-18T09:38:12.017Z,16.43
2018-01-18T09:40:40.327Z,21.17
2018-01-18T09:43:07.914Z,16.90
2018-01-18T09:45:35.461Z,11.53
2018-01-18T09:48:03.025Z,12.47
2018-01-18T09:50:30.552Z,12.00
2018-01-18T09:52:58.917Z,15.20
2018-01-18T09:55:26.464Z,13.43
2018-01-18T09:57:54.033Z,22.07
2018-01-18T10:00:22.344Z,25.23
2018-01-18T10:02:50.694Z,13.87
2018-01-18T10:05:19.002Z,8.00
2018-01-18T10:07:46.561Z,18.03
2018-01-18T10:10:14.118Z,16.17
2018-01-18T10:12:41.674Z,23.50
2018-01-18T10:15:09.270Z,11.90
2018-01-18T10:17:37.582Z,9.77
2018-01-18T10:20:05.912Z,13.93
2018-01-18T10:22:33.456Z,19.40
2018-01-18T10:25:01.793Z,16.03
2018-01-18T10:27:29.340Z,8.90
2018-01-18T10:29:57.660Z,7.70
2018-01-18T10:32:25.208Z,19.77
2018-01-18T10:34:52.774Z,13.03
2018-01-18T10:37:20.320Z,14.37
2018-01-18T10:39:47.879Z,18.23
2018-01-18T10:42:16.188Z,14.47
2018-01-18T10:44:44.521Z,16.53
2018-01-18T10:47:12.069Z,14.70
2018-01-18T10:49:40.394Z,7.63
2018-01-18T10:52:07.940Z,11.27
2018-01-18T10:54:35.485Z,25.80
2018-01-18T10:57:03.050Z,13.40
2018-01-18T10:59:30.594Z,25.07
2018-01-18T11:01:58.933Z,19.80
2018-01-18T11:04:26.481Z,10.83
2018-01-18T11:06:54.817Z,19.57
2018-01-18T11:09:22.348Z,5.47
2018-01-18T11:11:49.902Z,7.97
2018-01-18T11:14:17.452Z,11.23
2018-01-18T11:16:45.777Z,7.77
2018-01-18T11:19:13.328Z,5.80
2018-01-18T11:21:41.650Z,8.80
2018-01-18T11:24:09.209Z,9.83
2018-01-18T11:26:37.521Z,3.73
2018-01-18T11:29:05.849Z,7.33
2018-01-18T11:31:33.397Z,2.70
2018-01-18T11:34:00.957Z,6.23
2018-01-18T11:36:28.501Z,2.17
2018-01-18T11:38:56.064Z,3.63
2018-01-18T11:41:23.608Z,1.67
2018-01-18T11:43:51.164Z,3.43
2018-01-18T11:46:19.422Z,1.77
2018-01-18T11:48:46.984Z,15.33
2018-01-18T11:51:14.529Z,1.50
2018-01-18T11:53:42.093Z,2.00
2018-01-18T11:56:09.629Z,1.80
2018-01-18T11:58:37.179Z,1.77
2018-01-18T12:01:04.722Z,5.67
2018-01-18T12:03:33.054Z,1.17
2018-01-18T12:06:00.600Z,1.23
2018-01-18T12:08:28.922Z,1.47
2018-01-18T12:10:56.460Z,1.13
2018-01-18T12:13:24.024Z,0.93
2018-01-18T12:15:51.566Z,0.80
2018-01-18T12:18:19.877Z,1.50
2018-01-18T12:20:47.442Z,0.83
2018-01-18T12:23:15.754Z,1.83
2018-01-18T12:25:44.131Z,0.73
2018-01-18T12:28:12.454Z,1.07
2018-01-18T12:30:40.781Z,0.80
2018-01-18T12:33:08.320Z,0.63
2018-01-18T12:35:35.878Z,0.60
2018-01-18T12:38:03.422Z,1.33
2018-01-18T12:40:32.557Z,2.00
2018-01-18T12:43:00.101Z,0.63
2018-01-18T12:45:28.434Z,0.70
2018-01-18T12:47:55.977Z,0.40
2018-01-18T12:50:23.534Z,0.50
2018-01-18T12:52:51.076Z,0.50
2018-01-18T12:55:18.654Z,0.53
2018-01-18T12:57:46.201Z,0.50
2018-01-18T13:00:13.736Z,0.70
2018-01-18T13:02:41.321Z,0.50
2018-01-18T13:05:08.847Z,0.50
2018-01-18T13:07:36.410Z,0.97
2018-01-18T13:10:03.952Z,0.93
2018-01-18T13:12:32.305Z,1.17
2018-01-18T13:14:59.868Z,1.10
2018-01-18T13:17:27.444Z,1.50
2018-01-18T13:19:54.995Z,1.27
2018-01-18T13:22:22.553Z,1.63
2018-01-18T13:24:50.083Z,1.10
2018-01-18T13:27:18.408Z,2.73
2018-01-18T13:29:45.952Z,1.37
2018-01-18T13:32:14.285Z,1.30
2018-01-18T13:34:41.823Z,1.90
2018-01-18T13:37:09.364Z,1.80
2018-01-18T13:39:36.929Z,1.70
2018-01-18T13:42:04.467Z,2.40
2018-01-18T13:44:32.020Z,2.70
2018-01-18T13:46:59.619Z,2.63
2018-01-18T13:49:27.246Z,3.00
2018-01-18T13:51:55.558Z,2.60
2018-01-18T13:54:23.121Z,6.67
2018-01-18T13:56:50.661Z,4.97
2018-01-18T13:59:18.221Z,3.87
2018-01-18T14:01:45.755Z,4.83
2018-01-18T14:04:13.313Z,4.07
2018-01-18T14:06:40.855Z,5.97
2018-01-18T14:09:09.189Z,4.23
2018-01-18T14:11:36.717Z,5.60
2018-01-18T14:14:04.257Z,3.93
2018-01-18T14:16:31.821Z,4.80
2018-01-18T14:18:59.360Z,5.60
2018-01-18T14:21:26.930Z,6.67
2018-01-18T14:23:54.468Z,5.90
2018-01-18T14:26:22.032Z,6.87
2018-01-18T14:28:50.364Z,10.13
2018-01-18T14:31:17.924Z,4.73
2018-01-18T14:33:46.260Z,6.67
2018-01-18T14:36:13.809Z,4.23
2018-01-18T14:38:42.126Z,5.03
2018-01-18T14:41:09.676Z,5.07
2018-01-18T14:43:37.238Z,7.00
2018-01-18T14:46:04.805Z,5.60
2018-01-18T14:48:32.357Z,8.60
2018-01-18T14:51:00.681Z,7.80
2018-01-18T14:53:29.144Z,6.87
2018-01-18T14:55:56.670Z,11.00
2018-01-18T14:58:24.234Z,6.00
2018-01-18T15:00:51.766Z,9.70
2018-01-18T15:03:19.320Z,7.03
2018-01-18T15:05:46.864Z,4.40
2018-01-18T15:08:15.194Z,7.13
2018-01-18T15:10:42.745Z,8.23
2018-01-18T15:13:10.321Z,6.43
2018-01-18T15:15:37.864Z,10.80
2018-01-18T15:18:05.423Z,5.83
2018-01-18T15:20:32.976Z,7.63
2018-01-18T15:23:00.522Z,9.50
2018-01-18T15:25:28.071Z,8.70
2018-01-18T15:27:55.633Z,5.03
2018-01-18T15:30:23.181Z,18.80
2018-01-18T15:32:50.735Z,7.70
2018-01-18T15:35:18.301Z,15.63
2018-01-18T15:37:46.612Z,10.03
2018-01-18T15:40:14.207Z,12.90
2018-01-18T15:42:41.753Z,9.87
2018-01-18T15:45:09.322Z,13.70
2018-01-18T15:47:36.870Z,7.77
2018-01-18T15:50:04.520Z,10.27
2018-01-18T15:52:32.832Z,14.53
2018-01-18T15:55:01.150Z,20.17
2018-01-18T15:57:28.683Z,12.03
2018-01-18T15:59:56.253Z,4.93
2018-01-18T16:02:23.795Z,14.10
2018-01-18T16:04:51.357Z,12.97
2018-01-18T16:07:19.669Z,20.60
2018-01-18T16:09:47.988Z,5.20
2018-01-18T16:12:15.551Z,6.33
2018-01-18T16:14:43.850Z,5.97
2018-01-18T16:17:12.185Z,4.63
2018-01-18T16:19:39.745Z,10.80
2018-01-18T16:22:08.108Z,16.10
2018-01-18T16:24:35.649Z,10.60
2018-01-18T16:27:03.209Z,9.93
2018-01-18T16:29:31.521Z,12.30
2018-01-18T16:31:59.101Z,10.63
2018-01-18T16:34:27.424Z,11.50
2018-01-18T16:36:54.979Z,9.53
2018-01-18T16:39:23.284Z,10.00
2018-01-18T16:41:51.621Z,10.53
2018-01-18T16:44:19.172Z,10.40
2018-01-18T16:46:47.494Z,8.83
2018-01-18T16:49:15.045Z,6.60
2018-01-18T16:51:42.590Z,8.20
2018-01-18T16:54:10.176Z,6.20
2018-01-18T16:56:37.729Z,10.57
2018-01-18T16:59:05.307Z,12.63
2018-01-18T17:01:33.608Z,5.63
2018-01-18T17:04:01.952Z,9.70
2018-01-18T17:06:29.605Z,4.30
2018-01-18T17:08:57.979Z,2.20
2018-01-18T17:11:25.516Z,4.53
2018-01-18T17:13:53.068Z,2.37
2018-01-18T17:16:20.633Z,2.13
2018-01-18T17:18:48.988Z,2.40
2018-01-18T17:21:16.530Z,2.03
2018-01-18T17:23:44.860Z,2.60
2018-01-18T17:26:12.425Z,1.60
2018-01-18T17:28:40.734Z,3.37
2018-01-18T17:31:08.334Z,1.10
2018-01-18T17:33:35.872Z,3.03
2018-01-18T17:36:03.434Z,1.17
2018-01-18T17:38:31.011Z,1.63
2018-01-18T17:40:58.664Z,1.27
2018-01-18T17:43:26.210Z,0.93
2018-01-18T17:45:53.790Z,0.73
2018-01-18T17:48:21.367Z,0.90
2018-01-18T17:50:48.973Z,0.60
2018-01-18T17:53:17.291Z,0.97
2018-01-18T17:55:45.636Z,1.60
2018-01-18T17:58:13.167Z,1.10
2018-01-18T18:00:41.497Z,1.03
2018-01-18T18:03:09.100Z,1.70
2018-01-18T18:05:36.712Z,1.47
2018-01-18T18:08:09.016Z,1.20
2018-01-18T18:10:37.075Z,1.03
2018-01-18T18:13:04.633Z,1.60
2018-01-18T18:15:35.175Z,1.97
2018-01-18T18:18:02.821Z,1.73
2018-01-18T18:20:30.349Z,3.10
2018-01-18T18:22:57.975Z,2.37
2018-01-18T18:25:25.531Z,3.60
2018-01-18T18:27:53.138Z,5.67
2018-01-18T18:30:28.637Z,4.17
2018-01-18T18:32:56.191Z,8.73
2018-01-18T18:35:28.309Z,8.57
2018-01-18T18:37:58.303Z,7.30
2018-01-18T18:40:32.982Z,13.43
2018-01-18T18:43:01.137Z,11.50
2018-01-18T18:45:33.759Z,10.37
2018-01-18T18:48:09.159Z,8.40
2018-01-18T18:50:36.725Z,10.97
2018-01-18T18:53:04.286Z,10.80
2018-01-18T18:55:37.514Z,12.10
2018-01-18T18:58:05.097Z,7.87
2018-01-18T19:00:38.995Z,4.63
2018-01-18T19:03:15.173Z,5.50
2018-01-18T19:05:48.589Z,9.47
2018-01-18T19:08:16.564Z,7.23
2018-01-18T19:10:48.391Z,6.70
2018-01-18T19:13:22.067Z,6.00
2018-01-18T19:15:53.130Z,4.50
2018-01-18T19:18:21.588Z,7.03
2018-01-18T19:20:53.290Z,4.80
2018-01-18T19:23:24.717Z,5.37
2018-01-18T19:25:58.473Z,5.00
2018-01-18T19:28:28.151Z,4.07
2018-01-18T19:31:01.765Z,4.67
2018-01-18T19:33:29.890Z,4.73
2018-01-18T19:35:59.470Z,3.80
2018-01-18T19:38:32.092Z,6.43
2018-01-18T19:41:05.211Z,6.70
2018-01-18T19:43:33.481Z,5.73
2018-01-18T19:46:01.089Z,5.27
2018-01-18T19:48:32.835Z,6.40
2018-01-18T19:51:00.543Z,4.03
2018-01-18T19:53:34.875Z,4.13
2018-01-18T19:56:08.393Z,9.43
2018-01-18T19:58:41.508Z,8.23
2018-01-18T20:01:16.420Z,4.03
2018-01-18T20:03:49.117Z,6.73
2018-01-18T20:06:19.228Z,4.50
2018-01-18T20:08:52.430Z,5.17
2018-01-18T20:11:26.003Z,9.10
2018-01-18T20:13:59.863Z,7.40
2018-01-18T20:16:29.160Z,7.70
2018-01-18T20:19:00.297Z,5.10
2018-01-18T20:21:27.853Z,5.50
2018-01-18T20:23:55.409Z,4.80
2018-01-18T20:26:23.026Z,6.73
2018-01-18T20:28:51.393Z,12.37
2018-01-18T20:31:19.721Z,9.77
2018-01-18T20:33:47.268Z,3.37
2018-01-18T20:36:15.598Z,7.07
2018-01-18T20:38:43.147Z,12.50
2018-01-18T20:41:10.753Z,7.27
2018-01-18T20:43:39.052Z,8.80
2018-01-18T20:46:08.958Z,8.90
2018-01-18T20:48:37.306Z,9.67
2018-01-18T20:51:04.865Z,6.27
2018-01-18T20:53:32.406Z,4.23
2018-01-18T20:56:00.310Z,6.80
2018-01-18T20:58:27.839Z,3.90
2018-01-18T21:00:55.398Z,7.70
2018-01-18T21:03:22.945Z,2.97
2018-01-18T21:05:50.521Z,4.40
2018-01-18T21:08:18.846Z,3.17
2018-01-18T21:10:47.216Z,3.97
2018-01-18T21:13:15.549Z,2.97
2018-01-18T21:15:43.103Z,4.13
2018-01-18T21:18:12.388Z,9.03
2018-01-18T21:20:39.929Z,2.97
2018-01-18T21:23:07.485Z,12.40
2018-01-18T21:25:35.023Z,2.30
2018-01-18T21:28:02.584Z,4.97
2018-01-18T21:30:30.130Z,5.13
2018-01-18T21:32:58.472Z,5.17
2018-01-18T21:35:26.000Z,2.50
2018-01-18T21:37:53.555Z,4.60
2018-01-18T21:40:21.101Z,3.50
2018-01-18T21:42:49.449Z,4.80
2018-01-18T21:45:17.021Z,2.67
2018-01-18T21:47:45.494Z,2.53
2018-01-18T21:50:13.797Z,9.53
2018-01-18T21:52:42.130Z,4.03
2018-01-18T21:55:09.659Z,2.67
2018-01-18T21:57:37.225Z,4.90
2018-01-18T22:00:04.768Z,4.83
2018-01-18T22:02:32.332Z,4.10
2018-01-18T22:04:59.890Z,6.40
2018-01-18T22:07:27.430Z,8.00
2018-01-18T22:09:54.986Z,5.30
2018-01-18T22:12:23.293Z,8.77
2018-01-18T22:14:51.628Z,8.80
2018-01-18T22:17:19.176Z,6.13
2018-01-18T22:19:47.516Z,7.20
2018-01-18T22:22:15.073Z,8.70
2018-01-18T22:24:43.411Z,7.73
2018-01-18T22:27:10.952Z,8.00
2018-01-18T22:29:39.278Z,8.20
2018-01-18T22:32:06.827Z,10.23
2018-01-18T22:34:35.153Z,6.13
2018-01-18T22:37:02.686Z,7.10
2018-01-18T22:39:30.245Z,5.17
2018-01-18T22:41:57.789Z,6.80
2018-01-18T22:44:26.112Z,3.73
2018-01-18T22:46:53.649Z,3.67
2018-01-18T22:49:21.199Z,3.37
2018-01-18T22:51:48.736Z,3.90
2018-01-18T22:54:17.042Z,3.57
2018-01-18T22:56:45.368Z,4.60
2018-01-18T22:59:12.908Z,4.37
2018-01-18T23:01:40.468Z,6.97
2018-01-18T23:04:08.012Z,3.90
2018-01-18T23:06:35.577Z,5.03
2018-01-18T23:09:03.883Z,6.20
2018-01-18T23:11:32.218Z,4.20
2018-01-18T23:13:59.761Z,3.93
2018-01-18T23:16:28.080Z,4.50
2018-01-18T23:18:55.626Z,4.10
2018-01-18T23:21:23.188Z,6.60
2018-01-18T23:23:50.720Z,3.13
2018-01-18T23:26:19.049Z,5.70
2018-01-18T23:28:46.575Z,5.77
2018-01-18T23:31:14.138Z,4.90
2018-01-18T23:33:41.686Z,11.13
2018-01-18T23:36:09.261Z,4.60
2018-01-18T23:38:37.572Z,6.20
2018-01-18T23:41:05.149Z,6.73
2018-01-18T23:43:33.446Z,5.73
2018-01-18T23:46:01.749Z,8.40
2018-01-18T23:48:29.308Z,8.57
2018-01-18T23:50:56.854Z,13.40
2018-01-18T23:53:24.411Z,8.63
2018-01-18T23:55:51.959Z,6.97
2018-01-18T23:58:19.519Z,9.13
